EZS65KL EGPH-LFSB
Flight info
| Callsign | EZS65KL |
|---|---|
| Flight time | N/A |
| Altitude | 37000 |
| Route | GOSAM P600 FENIK L612 NAVSO DCT AKOMU DCT VAMEB UL612 BENBO/N0427F350 UL612 VEULE DCT TEPRI UN491 POGZI DCT GELTA DCT MANAG DCT MOTUK DCT LUL G42 ARPUS |
| Aircraft | A320/M-SDE2E3FGHIJ1RWXYZ/LB1 |
Departure
| Time | 2026-04-25 09:06 |
|---|---|
| Airport | Edinburgh Airport (EGPH) |
Arrival
| Time | N/A |
|---|---|
| Airport | EuroAirport Basel–Mulhouse–Freiburg (LFSB) |
| Time | Latitude | Longitude | Altitude | Speed | Heading |
|---|---|---|---|---|---|
| 2026-04-25 08:16 | 55.94939 | -3.35985 | 117 ft | 0 kts | 254° |
| 2026-04-25 08:17 | 55.94894 | -3.36004 | 114 ft | 0 kts | 254° |
| 2026-04-25 08:52 | 55.94878 | -3.35978 | 115 ft | 0 kts | 239° |
| 2026-04-25 08:54 | 55.94894 | -3.36004 | 118 ft | 0 kts | 254° |
| 2026-04-25 08:56 | 55.94894 | -3.36000 | 116 ft | 3 kts | 255° |
| 2026-04-25 08:56 | 55.94901 | -3.35955 | 113 ft | 4 kts | 256° |
| 2026-04-25 08:57 | 55.94907 | -3.35907 | 114 ft | 4 kts | 259° |
| 2026-04-25 08:57 | 55.94911 | -3.35860 | 113 ft | 4 kts | 264° |
| 2026-04-25 08:57 | 55.94913 | -3.35812 | 113 ft | 4 kts | 276° |
| 2026-04-25 08:57 | 55.94908 | -3.35778 | 116 ft | 0 kts | 298° |
| 2026-04-25 09:00 | 55.94913 | -3.35793 | 113 ft | 2 kts | 298° |
| 2026-04-25 09:00 | 55.94931 | -3.35852 | 113 ft | 5 kts | 298° |
| 2026-04-25 09:01 | 55.94940 | -3.35857 | 115 ft | 4 kts | 341° |
| 2026-04-25 09:01 | 55.94984 | -3.35853 | 115 ft | 9 kts | 18° |
| 2026-04-25 09:01 | 55.95054 | -3.35869 | 113 ft | 14 kts | 308° |
| 2026-04-25 09:01 | 55.95101 | -3.36040 | 115 ft | 15 kts | 288° |
| 2026-04-25 09:02 | 55.95132 | -3.36208 | 113 ft | 14 kts | 287° |
| 2026-04-25 09:02 | 55.95110 | -3.36353 | 114 ft | 12 kts | 239° |
| 2026-04-25 09:02 | 55.95058 | -3.36506 | 115 ft | 18 kts | 239° |
| 2026-04-25 09:02 | 55.94985 | -3.36722 | 115 ft | 23 kts | 238° |
| 2026-04-25 09:03 | 55.94895 | -3.36988 | 113 ft | 26 kts | 239° |
| 2026-04-25 09:03 | 55.94798 | -3.37274 | 115 ft | 28 kts | 239° |
| 2026-04-25 09:03 | 55.94696 | -3.37573 | 115 ft | 29 kts | 239° |
| 2026-04-25 09:03 | 55.94590 | -3.37887 | 114 ft | 30 kts | 239° |
| 2026-04-25 09:04 | 55.94482 | -3.38206 | 115 ft | 30 kts | 239° |
| 2026-04-25 09:04 | 55.94407 | -3.38428 | 114 ft | 19 kts | 239° |
| 2026-04-25 09:04 | 55.94343 | -3.38614 | 114 ft | 17 kts | 239° |
| 2026-04-25 09:04 | 55.94291 | -3.38772 | 116 ft | 12 kts | 239° |
| 2026-04-25 09:05 | 55.94307 | -3.38886 | 114 ft | 10 kts | 322° |
| 2026-04-25 09:05 | 55.94365 | -3.38952 | 114 ft | 10 kts | 328° |
| 2026-04-25 09:05 | 55.94426 | -3.38939 | 113 ft | 9 kts | 53° |
| 2026-04-25 09:05 | 55.94432 | -3.38922 | 113 ft | 0 kts | 58° |
| 2026-04-25 09:06 | 55.94488 | -3.38757 | 112 ft | 49 kts | 59° |
| 2026-04-25 09:06 | 55.94785 | -3.37881 | 115 ft | 113 kts | 59° |
| 2026-04-25 09:06 | 55.95280 | -3.36421 | 212 ft | 153 kts | 62° |
| 2026-04-25 09:06 | 55.95832 | -3.34881 | 990 ft | 146 kts | 59° |
| 2026-04-25 09:07 | 55.96502 | -3.33494 | 1639 ft | 155 kts | 45° |
| 2026-04-25 09:07 | 55.97365 | -3.32104 | 1966 ft | 178 kts | 44° |
| 2026-04-25 09:07 | 55.98339 | -3.30526 | 2283 ft | 200 kts | 44° |
| 2026-04-25 09:07 | 55.99455 | -3.28795 | 2626 ft | 226 kts | 35° |
| 2026-04-25 09:08 | 56.01016 | -3.27989 | 3042 ft | 250 kts | 355° |
| 2026-04-25 09:08 | 56.02633 | -3.29180 | 3752 ft | 259 kts | 317° |
| 2026-04-25 09:08 | 56.03544 | -3.31913 | 4663 ft | 261 kts | 282° |
| 2026-04-25 09:08 | 56.03528 | -3.35116 | 5578 ft | 264 kts | 261° |
| 2026-04-25 09:09 | 56.03065 | -3.38358 | 6554 ft | 266 kts | 254° |
| 2026-04-25 09:09 | 56.02473 | -3.41509 | 7426 ft | 269 kts | 252° |
| 2026-04-25 09:09 | 56.01866 | -3.44695 | 8295 ft | 272 kts | 254° |
| 2026-04-25 09:09 | 56.01289 | -3.47935 | 9135 ft | 276 kts | 255° |
| 2026-04-25 09:10 | 56.00745 | -3.51250 | 9968 ft | 280 kts | 256° |
| 2026-04-25 09:10 | 56.00225 | -3.54648 | 10589 ft | 292 kts | 257° |
| 2026-04-25 09:10 | 55.99702 | -3.58244 | 10843 ft | 314 kts | 257° |
| 2026-04-25 09:10 | 55.99146 | -3.62146 | 11428 ft | 324 kts | 257° |
| 2026-04-25 09:11 | 55.98023 | -3.70044 | 12906 ft | 333 kts | 258° |
| 2026-04-25 09:11 | 55.97450 | -3.74074 | 13638 ft | 337 kts | 257° |
| 2026-04-25 09:11 | 55.96866 | -3.78148 | 14303 ft | 341 kts | 257° |
| 2026-04-25 09:12 | 55.96269 | -3.82270 | 14964 ft | 344 kts | 257° |
| 2026-04-25 09:12 | 55.95666 | -3.86406 | 15629 ft | 347 kts | 257° |
| 2026-04-25 09:12 | 55.95052 | -3.90594 | 16275 ft | 350 kts | 257° |
| 2026-04-25 09:12 | 55.94433 | -3.94811 | 16912 ft | 353 kts | 256° |
| 2026-04-25 09:13 | 55.93652 | -3.98986 | 17523 ft | 358 kts | 245° |
| 2026-04-25 09:13 | 55.92322 | -4.02758 | 18152 ft | 363 kts | 231° |
| 2026-04-25 09:13 | 55.90472 | -4.05864 | 18749 ft | 367 kts | 216° |
| 2026-04-25 09:13 | 55.88358 | -4.08451 | 19292 ft | 370 kts | 215° |
| 2026-04-25 09:14 | 55.86228 | -4.11048 | 19838 ft | 373 kts | 215° |
| 2026-04-25 09:14 | 55.84113 | -4.13634 | 20395 ft | 375 kts | 215° |
| 2026-04-25 09:14 | 55.81924 | -4.16312 | 20918 ft | 379 kts | 215° |
| 2026-04-25 09:14 | 55.79744 | -4.18975 | 21428 ft | 381 kts | 215° |
| 2026-04-25 09:15 | 55.77544 | -4.21630 | 21957 ft | 384 kts | 212° |
| 2026-04-25 09:15 | 55.75141 | -4.23734 | 22445 ft | 388 kts | 200° |
| 2026-04-25 09:15 | 55.72508 | -4.24904 | 22912 ft | 393 kts | 188° |
| 2026-04-25 09:15 | 55.69768 | -4.25027 | 23408 ft | 396 kts | 175° |
| 2026-04-25 09:16 | 55.67071 | -4.24092 | 23932 ft | 397 kts | 163° |
| 2026-04-25 09:16 | 55.64501 | -4.22264 | 24342 ft | 400 kts | 153° |
| 2026-04-25 09:16 | 55.62054 | -4.19872 | 24726 ft | 403 kts | 151° |
| 2026-04-25 09:16 | 55.59602 | -4.17455 | 25111 ft | 405 kts | 152° |
| 2026-04-25 09:17 | 55.54650 | -4.12630 | 25918 ft | 408 kts | 152° |
| 2026-04-25 09:17 | 55.52997 | -4.11026 | 26151 ft | 410 kts | 152° |
| 2026-04-25 09:17 | 55.49636 | -4.07767 | 26659 ft | 413 kts | 152° |
| 2026-04-25 09:18 | 55.47965 | -4.06145 | 26900 ft | 415 kts | 152° |
| 2026-04-25 09:18 | 55.45426 | -4.03679 | 27268 ft | 417 kts | 152° |
| 2026-04-25 09:18 | 55.42882 | -4.01211 | 27694 ft | 418 kts | 152° |
| 2026-04-25 09:18 | 55.40331 | -3.98741 | 28096 ft | 419 kts | 152° |
| 2026-04-25 09:19 | 55.37772 | -3.96262 | 28473 ft | 421 kts | 152° |
| 2026-04-25 09:19 | 55.35200 | -3.93773 | 28837 ft | 423 kts | 152° |
| 2026-04-25 09:19 | 55.32614 | -3.91272 | 29199 ft | 425 kts | 152° |
| 2026-04-25 09:19 | 55.30015 | -3.88766 | 29549 ft | 427 kts | 152° |
| 2026-04-25 09:20 | 55.27405 | -3.86258 | 29898 ft | 429 kts | 152° |
| 2026-04-25 09:20 | 55.24773 | -3.83732 | 30141 ft | 434 kts | 153° |
| 2026-04-25 09:20 | 55.22115 | -3.81185 | 30373 ft | 437 kts | 153° |
| 2026-04-25 09:20 | 55.19412 | -3.78705 | 30633 ft | 439 kts | 154° |
| 2026-04-25 09:21 | 55.16677 | -3.76328 | 30961 ft | 439 kts | 155° |
| 2026-04-25 09:21 | 55.13929 | -3.74014 | 31259 ft | 439 kts | 156° |
| 2026-04-25 09:21 | 55.11164 | -3.71710 | 31556 ft | 440 kts | 156° |
| 2026-04-25 09:21 | 55.08407 | -3.69402 | 31930 ft | 439 kts | 156° |
| 2026-04-25 09:22 | 55.05660 | -3.67082 | 32323 ft | 437 kts | 155° |
| 2026-04-25 09:22 | 55.02934 | -3.64763 | 32715 ft | 436 kts | 155° |
| 2026-04-25 09:22 | 55.00214 | -3.62441 | 33094 ft | 434 kts | 155° |
| 2026-04-25 09:22 | 54.97505 | -3.60124 | 33488 ft | 433 kts | 155° |
| 2026-04-25 09:23 | 54.94808 | -3.57820 | 33886 ft | 431 kts | 155° |
| 2026-04-25 09:23 | 54.92126 | -3.55534 | 34333 ft | 428 kts | 155° |
| 2026-04-25 09:23 | 54.89458 | -3.53265 | 34675 ft | 426 kts | 155° |
| 2026-04-25 09:23 | 54.86798 | -3.51006 | 34955 ft | 425 kts | 155° |
| 2026-04-25 09:24 | 54.84134 | -3.48756 | 35211 ft | 425 kts | 155° |
| 2026-04-25 09:24 | 54.81472 | -3.46512 | 35457 ft | 426 kts | 155° |
| 2026-04-25 09:24 | 54.78810 | -3.44270 | 35696 ft | 426 kts | 155° |
| 2026-04-25 09:24 | 54.76146 | -3.42029 | 35936 ft | 426 kts | 155° |
| 2026-04-25 09:25 | 54.73481 | -3.39791 | 36171 ft | 426 kts | 155° |
| 2026-04-25 09:25 | 54.70815 | -3.37552 | 36409 ft | 426 kts | 155° |
| 2026-04-25 09:25 | 54.68151 | -3.35315 | 36635 ft | 426 kts | 155° |
| 2026-04-25 09:25 | 54.65487 | -3.33075 | 36851 ft | 426 kts | 155° |
| 2026-04-25 09:26 | 54.62821 | -3.30843 | 37072 ft | 426 kts | 155° |